Ariel, Israel
Current Conditions -  °F | °C
As of 2:50 PM on Thursday 30 Oct 2014 (Local Time) from LLHA Reporting Station
Few Clouds Few Clouds  
Wind Chill: 77°   Ceiling: Unl
Heat Index: 79°   Visibility: 6mi
Dew Point: 57°   Wind: 7mph
Humidity: 50%   Direction: 270°W
Pressure: 29.91"   Gusts: NA
Location:  32.47°N, 35.13°E
Report Text: LLHA 301150Z 27006KT 240V320 9999 FEW030 25/14 Q1013
Loading
Personal Weather Stations






























Interactive Weather Map
Tropical Storm Tracking
New forecast layout! Learn more

10-Day Weather Forecast

Advertisements
Track Severe Weather on mobile